Terminal Aerodrome Forecast
Issued by NWS

Home | Current Version | Previous Version | Text Only | Print | Product List | Glossary On
Versions: 1 2 3 4 5 6 7 8 9 10 11 12 13 14 15 16
869
FTAK31 PAJN 242330
TAFAPG
TAF
PAPG 242330Z 2500/2524 06005KT P6SM SCT020 OVC040
     FM251100 00000KT P6SM SCT001 BKN018
     FM251800 06004KT P6SM SCT012 BKN030
      AMD LTD TO CLD VIS AND WIND 2506/2515=

USA.gov is the U.S. government's official web portal to all federal, state and local government web resources and services.